Hashtown, Indiana
Current Conditions -  °F | °C
As of 6:53 AM on Saturday 22 Nov 2014 (Local Time) from KBMG Reporting Station
Overcast Overcast  
Wind Chill: 30°   Ceiling: 6000
Heat Index: 36°   Visibility: 9mi
Dew Point: 32°   Wind: 8mph
Humidity: 86%   Direction: 140°SE
Pressure: 30.21"   Gusts: NA
Location:  39.0306°N, 86.8553°W
Report Text: KBMG 221153Z 14007KT 9SM OVC060 02/00 A3021 RMK AO2 SLP238 60002 70002 T00220000 10022 20000 56012
Loading
Personal Weather Stations






























Interactive Weather Map New forecast layout! Learn more

10-Day Weather Forecast

Advertisements
Track Severe Weather on mobile